createdAt,value
2018-09-04T00:00:18.626Z,19.80
2018-09-04T00:02:47.001Z,19.70
2018-09-04T00:05:15.375Z,19.70
2018-09-04T00:07:44.495Z,19.70
2018-09-04T00:10:12.843Z,19.60
2018-09-04T00:12:42.180Z,19.60
2018-09-04T00:15:11.038Z,19.60
2018-09-04T00:17:40.141Z,19.50
2018-09-04T00:20:08.501Z,19.50
2018-09-04T00:22:36.858Z,19.50
2018-09-04T00:25:05.209Z,19.40
2018-09-04T00:27:33.597Z,19.40
2018-09-04T00:30:03.072Z,19.40
2018-09-04T00:32:32.192Z,19.30
2018-09-04T00:35:00.561Z,19.30
2018-09-04T00:37:28.933Z,19.30
2018-09-04T00:39:57.380Z,19.30
2018-09-04T00:42:26.491Z,19.20
2018-09-04T00:44:54.888Z,19.20
2018-09-04T00:47:23.983Z,19.20
2018-09-04T00:49:52.316Z,19.20
2018-09-04T00:52:20.675Z,19.20
2018-09-04T00:54:49.016Z,19.10
2018-09-04T00:57:17.394Z,19.10
2018-09-04T00:59:45.739Z,19.00
2018-09-04T01:02:14.108Z,19.00
2018-09-04T01:04:42.675Z,19.00
2018-09-04T01:07:11.131Z,19.00
2018-09-04T01:09:39.485Z,18.90
2018-09-04T01:12:08.608Z,18.90
2018-09-04T01:14:36.981Z,18.80
2018-09-04T01:17:05.331Z,18.80
2018-09-04T01:19:33.682Z,18.90
2018-09-04T01:22:02.015Z,18.80
2018-09-04T01:24:30.539Z,18.80
2018-09-04T01:26:58.869Z,18.80
2018-09-04T01:29:27.293Z,18.80
2018-09-04T01:31:55.624Z,18.80
2018-09-04T01:34:23.967Z,18.70
2018-09-04T01:36:52.355Z,18.70
2018-09-04T01:39:20.697Z,18.70
2018-09-04T01:41:49.046Z,18.60
2018-09-04T01:44:17.390Z,18.60
2018-09-04T01:46:45.763Z,18.60
2018-09-04T01:49:14.129Z,18.60
2018-09-04T01:51:42.500Z,18.60
2018-09-04T01:54:10.811Z,18.50
2018-09-04T01:56:39.960Z,18.60
2018-09-04T01:59:08.287Z,18.50
2018-09-04T02:01:36.639Z,18.50
2018-09-04T02:04:04.971Z,18.50
2018-09-04T02:06:33.327Z,18.50
2018-09-04T02:09:02.433Z,18.40
2018-09-04T02:11:30.771Z,18.40
2018-09-04T02:13:59.111Z,18.40
2018-09-04T02:16:27.783Z,18.40
2018-09-04T02:18:56.938Z,18.30
2018-09-04T02:21:25.251Z,18.30
2018-09-04T02:23:54.365Z,18.30
2018-09-04T02:26:22.713Z,18.30
2018-09-04T02:28:51.054Z,18.30
2018-09-04T02:31:19.390Z,18.20
2018-09-04T02:33:48.497Z,18.20
2018-09-04T02:36:16.846Z,18.20
2018-09-04T02:38:45.190Z,18.20
2018-09-04T02:41:13.522Z,18.10
2018-09-04T02:43:42.905Z,18.10
2018-09-04T02:46:11.329Z,18.10
2018-09-04T02:48:39.693Z,18.10
2018-09-04T02:51:08.935Z,18.00
2018-09-04T02:53:37.326Z,18.00
2018-09-04T02:56:05.659Z,18.10
2018-09-04T02:58:34.000Z,18.00
2018-09-04T03:01:02.364Z,17.90
2018-09-04T03:03:30.715Z,17.90
2018-09-04T03:05:59.068Z,17.90
2018-09-04T03:08:27.405Z,17.90
2018-09-04T03:10:55.825Z,17.90
2018-09-04T03:13:24.205Z,17.90
2018-09-04T03:15:52.599Z,17.80
2018-09-04T03:18:20.925Z,17.80
2018-09-04T03:20:49.261Z,17.70
2018-09-04T03:23:17.824Z,17.70
2018-09-04T03:25:46.706Z,17.70
2018-09-04T03:28:15.181Z,17.70
2018-09-04T03:30:44.297Z,17.70
2018-09-04T03:33:12.669Z,17.60
2018-09-04T03:35:40.981Z,17.60
2018-09-04T03:38:09.469Z,17.70
2018-09-04T03:40:38.648Z,17.70
2018-09-04T03:43:06.989Z,17.60
2018-09-04T03:45:35.320Z,17.60
2018-09-04T03:48:03.781Z,17.60
2018-09-04T03:50:32.157Z,17.60
2018-09-04T03:53:00.489Z,17.60
2018-09-04T03:55:28.847Z,17.50
2018-09-04T03:57:57.177Z,17.50
2018-09-04T04:00:25.549Z,17.50
2018-09-04T04:02:54.639Z,17.40
2018-09-04T04:05:23.766Z,17.40
2018-09-04T04:07:52.127Z,17.40
2018-09-04T04:10:20.501Z,17.40
2018-09-04T04:12:49.609Z,17.30
2018-09-04T04:15:17.997Z,17.30
2018-09-04T04:17:46.325Z,17.30
2018-09-04T04:20:14.781Z,17.30
2018-09-04T04:22:43.083Z,17.30
2018-09-04T04:25:11.522Z,17.30
2018-09-04T04:27:39.875Z,17.30
2018-09-04T04:30:08.988Z,17.20
2018-09-04T04:32:37.398Z,17.20
2018-09-04T04:35:05.786Z,17.20
2018-09-04T04:37:34.331Z,17.20
2018-09-04T04:40:02.738Z,17.20
2018-09-04T04:42:31.067Z,17.20
2018-09-04T04:45:00.203Z,17.20
2018-09-04T04:47:28.569Z,17.20
2018-09-04T04:49:56.943Z,17.10
2018-09-04T04:52:25.413Z,17.10
2018-09-04T04:54:53.990Z,17.10
2018-09-04T04:57:23.129Z,17.10
2018-09-04T04:59:51.433Z,17.10
2018-09-04T05:02:19.879Z,17.10
2018-09-04T05:04:48.244Z,17.10
2018-09-04T05:07:16.595Z,17.10
2018-09-04T05:09:44.956Z,17.10
2018-09-04T05:12:13.401Z,17.10
2018-09-04T05:14:41.801Z,17.10
2018-09-04T05:17:10.161Z,17.10
2018-09-04T05:19:38.518Z,17.10
2018-09-04T05:22:06.871Z,17.10
2018-09-04T05:24:35.548Z,17.00
2018-09-04T05:27:04.689Z,17.00
2018-09-04T05:29:33.064Z,17.10
2018-09-04T05:32:02.163Z,17.10
2018-09-04T05:34:30.517Z,17.10
2018-09-04T05:36:58.910Z,17.10
2018-09-04T05:39:27.271Z,17.10
2018-09-04T05:41:56.451Z,17.30
2018-09-04T05:44:24.931Z,17.20
2018-09-04T05:46:54.391Z,17.30
2018-09-04T05:49:23.478Z,17.40
2018-09-04T05:51:51.844Z,17.50
2018-09-04T05:54:20.955Z,17.60
2018-09-04T05:56:49.345Z,17.60
2018-09-04T05:59:17.811Z,17.60
2018-09-04T06:01:46.173Z,17.70
2018-09-04T06:04:15.298Z,17.80
2018-09-04T06:06:43.643Z,17.80
2018-09-04T06:09:12.738Z,17.90
2018-09-04T06:11:41.854Z,18.00
2018-09-04T06:14:10.277Z,17.90
2018-09-04T06:16:38.610Z,18.00
2018-09-04T06:19:06.961Z,18.10
2018-09-04T06:21:35.313Z,18.20
2018-09-04T06:24:03.643Z,18.30
2018-09-04T06:26:32.067Z,18.40
2018-09-04T06:29:00.401Z,18.40
2018-09-04T06:31:28.806Z,18.50
2018-09-04T06:33:57.188Z,18.60
2018-09-04T06:36:25.666Z,18.70
2018-09-04T06:38:54.013Z,18.80
2018-09-04T06:41:23.152Z,19.00
2018-09-04T06:43:52.214Z,18.90
2018-09-04T06:46:20.628Z,19.00
2018-09-04T06:48:48.985Z,19.00
2018-09-04T06:51:17.335Z,19.10
2018-09-04T06:53:46.453Z,19.20
2018-09-04T06:56:14.791Z,19.20
2018-09-04T06:58:43.228Z,19.20
2018-09-04T07:01:11.631Z,19.30
2018-09-04T07:03:40.018Z,19.40
2018-09-04T07:06:08.465Z,19.40
2018-09-04T07:08:36.731Z,19.50
2018-09-04T07:11:05.075Z,19.50
2018-09-04T07:13:33.416Z,19.60
2018-09-04T07:16:01.759Z,19.70
2018-09-04T07:18:30.096Z,19.80
2018-09-04T07:20:58.449Z,19.90
2018-09-04T07:23:26.786Z,20.00
2018-09-04T07:25:55.154Z,20.10
2018-09-04T07:28:23.478Z,20.10
2018-09-04T07:30:52.081Z,20.20
2018-09-04T07:33:20.438Z,20.30
2018-09-04T07:35:48.788Z,20.30
2018-09-04T07:38:17.897Z,20.50
2018-09-04T07:40:46.248Z,20.50
2018-09-04T07:43:15.359Z,20.70
2018-09-04T07:45:44.495Z,20.80
2018-09-04T07:48:12.875Z,20.80
2018-09-04T07:50:41.276Z,20.90
2018-09-04T07:53:09.635Z,21.00
2018-09-04T07:55:38.071Z,21.10
2018-09-04T07:58:07.217Z,21.20
2018-09-04T08:00:35.596Z,21.20
2018-09-04T08:03:04.004Z,21.30
2018-09-04T08:05:32.315Z,21.30
2018-09-04T08:08:00.746Z,21.50
2018-09-04T08:10:29.084Z,21.50
2018-09-04T08:12:57.417Z,21.60
2018-09-04T08:15:25.787Z,21.70
2018-09-04T08:17:54.136Z,21.70
2018-09-04T08:20:22.630Z,21.80
2018-09-04T08:22:52.150Z,21.80
2018-09-04T08:25:21.359Z,21.80
2018-09-04T08:27:49.731Z,21.90
2018-09-04T08:30:18.080Z,22.10
2018-09-04T08:32:46.503Z,22.20
2018-09-04T08:35:14.774Z,22.30
2018-09-04T08:37:43.124Z,22.40
2018-09-04T08:40:11.576Z,22.50
2018-09-04T08:42:39.990Z,22.60
2018-09-04T08:45:08.335Z,22.70
2018-09-04T08:47:36.709Z,22.80
2018-09-04T08:50:05.061Z,23.00
2018-09-04T08:52:33.408Z,23.00
2018-09-04T08:55:01.830Z,23.10
2018-09-04T08:57:30.128Z,23.20
2018-09-04T08:59:58.490Z,23.20
2018-09-04T09:02:28.047Z,23.30
2018-09-04T09:04:56.396Z,23.30
2018-09-04T09:07:24.874Z,23.40
2018-09-04T09:09:53.331Z,23.60
2018-09-04T09:12:21.629Z,23.70
2018-09-04T09:14:49.966Z,23.90
2018-09-04T09:17:18.322Z,24.20
2018-09-04T09:19:46.745Z,24.40
2018-09-04T09:22:15.862Z,25.00
2018-09-04T09:24:44.228Z,25.00
2018-09-04T09:27:13.343Z,25.50
2018-09-04T09:29:41.690Z,25.50
2018-09-04T09:32:10.052Z,25.90
2018-09-04T09:34:38.399Z,26.00
2018-09-04T09:37:06.804Z,26.40
2018-09-04T09:39:35.850Z,26.70
2018-09-04T09:42:04.294Z,26.70
2018-09-04T09:44:32.641Z,27.00
2018-09-04T09:47:01.236Z,27.40
2018-09-04T09:49:29.554Z,27.60
2018-09-04T09:51:58.666Z,28.20
2018-09-04T09:54:27.778Z,28.50
2018-09-04T09:56:56.125Z,28.50
2018-09-04T09:59:24.496Z,28.80
2018-09-04T10:01:52.811Z,29.00
2018-09-04T10:04:21.160Z,29.40
2018-09-04T10:06:49.528Z,29.40
2018-09-04T10:09:17.882Z,29.80
2018-09-04T10:11:46.240Z,30.00
2018-09-04T10:14:14.624Z,29.90
2018-09-04T10:16:43.060Z,29.70
2018-09-04T10:19:11.606Z,30.10
2018-09-04T10:21:39.938Z,30.40
2018-09-04T10:24:08.303Z,30.80
2018-09-04T10:26:36.776Z,30.80
2018-09-04T10:29:05.108Z,30.80
2018-09-04T10:31:33.446Z,31.00
2018-09-04T10:34:02.900Z,31.00
2018-09-04T10:36:31.236Z,30.90
2018-09-04T10:39:00.322Z,31.30
2018-09-04T10:41:28.714Z,31.30
2018-09-04T10:43:57.835Z,31.70
2018-09-04T10:46:26.184Z,31.60
2018-09-04T10:48:55.295Z,32.30
2018-09-04T10:51:23.651Z,32.20
2018-09-04T10:53:52.010Z,32.40
2018-09-04T10:56:20.450Z,32.80
2018-09-04T10:58:48.840Z,33.00
2018-09-04T11:01:17.280Z,33.10
2018-09-04T11:03:46.385Z,33.60
2018-09-04T11:06:14.890Z,33.50
2018-09-04T11:08:43.262Z,33.40
2018-09-04T11:11:11.588Z,33.70
2018-09-04T11:13:39.954Z,34.00
2018-09-04T11:16:08.296Z,34.20
2018-09-04T11:18:36.636Z,33.90
2018-09-04T11:21:04.952Z,34.20
2018-09-04T11:23:33.351Z,34.30
2018-09-04T11:26:02.392Z,34.10
2018-09-04T11:28:31.582Z,34.30
2018-09-04T11:31:00.741Z,34.30
2018-09-04T11:33:29.164Z,34.50
2018-09-04T11:35:57.638Z,34.80
2018-09-04T11:38:25.950Z,34.70
2018-09-04T11:40:54.296Z,34.90
2018-09-04T11:43:22.634Z,34.80
2018-09-04T11:45:50.970Z,35.10
2018-09-04T11:48:19.310Z,35.40
2018-09-04T11:50:47.712Z,35.60
2018-09-04T11:53:16.100Z,35.50
2018-09-04T11:55:45.238Z,35.50
2018-09-04T11:58:13.585Z,35.40
2018-09-04T12:00:42.735Z,35.60
2018-09-04T12:03:11.051Z,35.60
2018-09-04T12:05:39.537Z,35.90
2018-09-04T12:08:07.857Z,35.70
2018-09-04T12:10:36.195Z,35.60
2018-09-04T12:13:05.304Z,36.00
2018-09-04T12:15:33.722Z,36.00
2018-09-04T12:18:02.090Z,36.30
2018-09-04T12:20:30.448Z,36.30
2018-09-04T12:22:58.777Z,36.60
2018-09-04T12:25:27.141Z,36.50
2018-09-04T12:27:55.468Z,36.60
2018-09-04T12:30:24.594Z,36.80
2018-09-04T12:32:52.950Z,36.80
2018-09-04T12:35:22.091Z,36.80
2018-09-04T12:37:50.445Z,37.00
2018-09-04T12:40:18.763Z,37.20
2018-09-04T12:42:47.104Z,37.30
2018-09-04T12:45:15.435Z,37.40
2018-09-04T12:47:43.803Z,37.70
2018-09-04T12:50:12.131Z,37.30
2018-09-04T12:52:40.471Z,37.50
2018-09-04T12:55:08.809Z,37.20
2018-09-04T12:57:37.172Z,37.40
2018-09-04T13:00:05.525Z,37.60
2018-09-04T13:02:34.087Z,37.60
2018-09-04T13:05:02.403Z,37.90
2018-09-04T13:07:30.778Z,38.00
2018-09-04T13:09:59.171Z,38.20
2018-09-04T13:12:27.541Z,38.00
2018-09-04T13:14:55.943Z,37.90
2018-09-04T13:17:24.379Z,38.00
2018-09-04T13:19:52.765Z,38.20
2018-09-04T13:22:21.084Z,38.30
2018-09-04T13:24:49.436Z,38.20
2018-09-04T13:27:17.791Z,38.30
2018-09-04T13:29:46.899Z,38.50
2018-09-04T13:32:15.993Z,38.40
2018-09-04T13:34:45.181Z,38.30
2018-09-04T13:37:14.395Z,37.20
2018-09-04T13:39:43.505Z,36.70
2018-09-04T13:42:11.856Z,36.70
2018-09-04T13:44:40.300Z,36.90
2018-09-04T13:47:08.633Z,36.90
2018-09-04T13:49:37.823Z,37.30
2018-09-04T13:52:06.099Z,37.30
2018-09-04T13:54:34.439Z,37.40
2018-09-04T13:57:02.849Z,37.70
2018-09-04T13:59:31.139Z,37.90
2018-09-04T14:02:00.235Z,38.10
2018-09-04T14:04:29.437Z,38.00
2018-09-04T14:06:58.479Z,37.90
2018-09-04T14:09:26.799Z,37.90
2018-09-04T14:11:55.931Z,37.80
2018-09-04T14:14:24.259Z,37.80
2018-09-04T14:16:52.749Z,37.60
2018-09-04T14:19:21.038Z,37.80
2018-09-04T14:21:49.397Z,37.50
2018-09-04T14:24:32.642Z,37.70
2018-09-04T14:27:16.049Z,37.60
2018-09-04T14:30:15.923Z,37.50
2018-09-04T14:32:42.604Z,37.60
2018-09-04T14:35:25.999Z,37.40
2018-09-04T14:38:09.279Z,37.40
2018-09-04T14:40:52.614Z,37.20
2018-09-04T14:43:35.981Z,37.20
2018-09-04T14:46:19.259Z,37.20
2018-09-04T14:49:02.727Z,36.90
2018-09-04T14:51:45.996Z,36.80
2018-09-04T14:54:30.460Z,36.20
2018-09-04T14:57:14.623Z,36.10
2018-09-04T14:59:57.939Z,36.10
2018-09-04T15:02:41.211Z,36.10
2018-09-04T15:05:24.536Z,35.90
2018-09-04T15:08:07.833Z,36.00
2018-09-04T15:10:51.201Z,35.90
2018-09-04T15:13:34.428Z,35.80
2018-09-04T15:16:17.810Z,35.60
2018-09-04T15:19:01.894Z,35.40
2018-09-04T15:21:45.133Z,35.40
2018-09-04T15:24:28.411Z,35.30
2018-09-04T15:27:11.725Z,35.40
2018-09-04T15:29:55.767Z,35.10
2018-09-04T15:32:39.651Z,35.10
2018-09-04T15:35:23.005Z,35.00
2018-09-04T15:38:06.268Z,34.80
2018-09-04T15:40:49.527Z,34.80
2018-09-04T15:43:33.561Z,34.50
2018-09-04T15:46:17.578Z,34.20
2018-09-04T15:49:00.986Z,34.20
2018-09-04T15:51:44.230Z,34.20
2018-09-04T15:54:27.546Z,34.30
2018-09-04T15:57:10.844Z,34.20
2018-09-04T15:59:54.271Z,34.00
2018-09-04T16:02:37.539Z,34.10
2018-09-04T16:05:20.851Z,34.00
2018-09-04T16:08:04.224Z,33.80
2018-09-04T16:10:47.619Z,33.60
2018-09-04T16:13:30.923Z,33.50
2018-09-04T16:16:14.307Z,33.30
2018-09-04T16:18:57.685Z,33.10
2018-09-04T16:21:41.731Z,32.70
2018-09-04T16:24:25.036Z,32.60
2018-09-04T16:27:08.300Z,32.60
2018-09-04T16:29:51.613Z,32.50
2018-09-04T16:32:34.987Z,32.20
2018-09-04T16:35:18.255Z,31.70
2018-09-04T16:38:01.548Z,31.40
2018-09-04T16:40:44.792Z,31.30
2018-09-04T16:43:28.074Z,31.10
2018-09-04T16:46:11.544Z,31.00
2018-09-04T16:48:54.865Z,31.00
2018-09-04T16:51:38.192Z,30.90
2018-09-04T16:54:21.556Z,30.90
2018-09-04T16:57:04.807Z,30.70
2018-09-04T16:59:48.109Z,30.60
2018-09-04T17:02:31.392Z,30.50
2018-09-04T17:05:14.705Z,30.30
2018-09-04T17:07:58.709Z,29.30
2018-09-04T17:10:42.037Z,29.30
2018-09-04T17:13:25.293Z,28.90
2018-09-04T17:16:08.557Z,28.40
2018-09-04T17:18:52.141Z,28.00
2018-09-04T17:21:35.557Z,27.60
2018-09-04T17:24:18.845Z,27.30
2018-09-04T17:27:02.122Z,27.00
2018-09-04T17:29:45.436Z,26.70
2018-09-04T17:32:28.719Z,26.50
2018-09-04T17:38:02.541Z,25.90
2018-09-04T17:40:45.808Z,25.90
2018-09-04T17:43:29.056Z,25.70
2018-09-04T17:46:12.359Z,25.50
2018-09-04T17:48:55.686Z,25.40
2018-09-04T17:51:39.049Z,25.20
2018-09-04T17:54:22.331Z,25.00
2018-09-04T17:57:05.775Z,24.90
2018-09-04T17:59:49.009Z,24.70
2018-09-04T18:02:32.381Z,24.60
2018-09-04T18:05:16.674Z,24.40
2018-09-04T18:08:00.494Z,24.40
2018-09-04T18:10:44.565Z,24.20
2018-09-04T18:13:27.892Z,24.20
2018-09-04T18:16:11.670Z,24.10
2018-09-04T18:18:55.008Z,24.00
2018-09-04T18:21:38.319Z,23.90
2018-09-04T18:24:21.594Z,23.80
2018-09-04T18:27:04.854Z,23.70
2018-09-04T18:29:48.469Z,23.70
2018-09-04T18:32:31.956Z,23.60
2018-09-04T18:35:15.497Z,23.50
2018-09-04T18:37:58.904Z,23.50
2018-09-04T18:40:42.148Z,23.40
2018-09-04T18:43:25.461Z,23.30
2018-09-04T18:46:08.813Z,23.20
2018-09-04T18:48:52.308Z,23.20
2018-09-04T18:51:35.568Z,23.10
2018-09-04T18:54:18.976Z,23.00
2018-09-04T18:57:02.313Z,23.00
2018-09-04T18:59:45.577Z,23.00
2018-09-04T19:02:29.479Z,23.00
2018-09-04T19:05:12.778Z,22.90
2018-09-04T19:07:56.831Z,22.80
2018-09-04T19:10:40.157Z,22.80
2018-09-04T19:13:24.240Z,22.70
2018-09-04T19:16:07.535Z,22.70
2018-09-04T19:18:50.840Z,22.70
2018-09-04T19:21:34.105Z,22.70
2018-09-04T19:24:17.404Z,22.60
2018-09-04T19:27:01.555Z,22.50
2018-09-04T19:29:44.910Z,22.50
2018-09-04T19:32:28.963Z,22.40
2018-09-04T19:35:12.260Z,22.40
2018-09-04T19:37:55.695Z,22.40
2018-09-04T19:40:38.985Z,22.40
2018-09-04T19:43:22.859Z,22.30
2018-09-04T19:46:06.291Z,22.30
2018-09-04T19:48:49.709Z,22.30
2018-09-04T19:51:32.984Z,22.20
2018-09-04T19:54:16.371Z,22.20
2018-09-04T19:56:59.646Z,22.10
2018-09-04T19:59:42.901Z,22.10
2018-09-04T20:02:26.284Z,22.10
2018-09-04T20:05:10.335Z,22.00
2018-09-04T20:07:55.333Z,22.00
2018-09-04T20:10:38.609Z,21.90
2018-09-04T20:13:22.121Z,21.90
2018-09-04T20:16:06.198Z,21.80
2018-09-04T20:18:49.513Z,21.70
2018-09-04T20:21:32.863Z,21.70
2018-09-04T20:24:17.133Z,21.60
2018-09-04T20:27:01.238Z,21.40
2018-09-04T20:29:44.659Z,21.40
2018-09-04T20:32:28.806Z,21.30
2018-09-04T20:35:12.198Z,21.30
2018-09-04T20:37:56.292Z,21.10
2018-09-04T20:40:24.381Z,21.10
2018-09-04T20:42:52.468Z,21.10
2018-09-04T20:45:20.835Z,21.00
2018-09-04T20:47:49.958Z,20.90
2018-09-04T20:50:18.308Z,20.90
2018-09-04T20:52:46.787Z,20.90
2018-09-04T20:55:15.519Z,20.80
2018-09-04T20:57:55.726Z,20.70
2018-09-04T21:00:36.627Z,20.60
2018-09-04T21:03:16.985Z,20.60
2018-09-04T21:05:57.306Z,20.60
2018-09-04T21:08:26.495Z,20.50
2018-09-04T21:10:55.701Z,20.40
2018-09-04T21:13:24.431Z,20.40
2018-09-04T21:15:53.667Z,20.30
2018-09-04T21:18:22.089Z,20.30
2018-09-04T21:20:51.180Z,20.20
2018-09-04T21:23:20.113Z,20.20
2018-09-04T21:25:48.583Z,20.10
2018-09-04T21:28:17.069Z,20.10
2018-09-04T21:30:45.423Z,20.00
2018-09-04T21:33:13.769Z,20.00
2018-09-04T21:35:42.131Z,19.90
2018-09-04T21:38:10.494Z,19.90
2018-09-04T21:40:38.885Z,19.80
2018-09-04T21:43:07.466Z,19.80
2018-09-04T21:45:35.798Z,19.80
2018-09-04T21:48:04.894Z,19.70
2018-09-04T21:50:33.258Z,19.70
2018-09-04T21:53:01.601Z,19.70
2018-09-04T21:55:29.970Z,19.60
2018-09-04T21:57:58.387Z,19.60
2018-09-04T22:00:26.789Z,19.60
2018-09-04T22:02:55.904Z,19.50
2018-09-04T22:05:24.348Z,19.50
2018-09-04T22:07:52.679Z,19.50
2018-09-04T22:10:21.031Z,19.40
2018-09-04T22:12:49.436Z,19.40
2018-09-04T22:15:17.759Z,19.40
2018-09-04T22:17:46.123Z,19.40
2018-09-04T22:20:14.473Z,19.30
2018-09-04T22:22:42.865Z,19.30
2018-09-04T22:25:11.255Z,19.30
2018-09-04T22:27:39.664Z,19.30
2018-09-04T22:30:08.001Z,19.20
2018-09-04T22:32:36.428Z,19.10
2018-09-04T22:35:05.542Z,19.10
2018-09-04T22:37:33.867Z,19.10
2018-09-04T22:40:02.230Z,19.10
2018-09-04T22:42:30.587Z,19.00
2018-09-04T22:44:58.927Z,19.00
2018-09-04T22:47:27.264Z,18.90
2018-09-04T22:49:55.619Z,18.90
2018-09-04T22:52:23.964Z,18.90
2018-09-04T22:54:52.295Z,18.90
2018-09-04T22:57:21.612Z,18.90
2018-09-04T22:59:49.918Z,18.80
2018-09-04T23:02:18.312Z,18.80
2018-09-04T23:04:46.681Z,18.80
2018-09-04T23:07:15.166Z,18.70
2018-09-04T23:09:44.296Z,18.70
2018-09-04T23:12:12.667Z,18.70
2018-09-04T23:14:41.766Z,18.60
2018-09-04T23:17:10.171Z,18.60
2018-09-04T23:19:38.631Z,18.60
2018-09-04T23:22:07.009Z,18.60
2018-09-04T23:24:35.354Z,18.60
2018-09-04T23:27:03.834Z,18.60
2018-09-04T23:29:32.139Z,18.50
2018-09-04T23:32:01.249Z,18.40
2018-09-04T23:34:29.590Z,18.40
2018-09-04T23:36:57.955Z,18.40
2018-09-04T23:39:26.285Z,18.30
2018-09-04T23:41:54.674Z,18.30
2018-09-04T23:44:23.097Z,18.30
2018-09-04T23:46:51.462Z,18.30
2018-09-04T23:49:19.795Z,18.20
2018-09-04T23:51:48.152Z,18.20
2018-09-04T23:54:17.280Z,18.10
2018-09-04T23:56:45.729Z,18.10
2018-09-04T23:59:14.061Z,18.10
